sensor_id;sensor_type;location;lat;lon;timestamp;pressure;altitude;pressure_sealevel;temperature;humidity
71642;BME280;60657;50.122;14.468;2024-01-15T00:01:42;96624.40443907649;;;1.0231174181734985;71.54634927901121
71642;BME280;60657;50.122;14.468;2024-01-15T00:04:55;96622.70743216752;;;0.9029526207370111;72.12046997787442
71642;BME280;60657;50.122;14.468;2024-01-15T00:08:04;96625.17067193211;;;1.0017547875181236;71.90112153810941
71642;BME280;60657;50.122;14.468;2024-01-15T00:11:11;96623.58339848669;;;0.9590295262073667;71.92591744869154
71642;BME280;60657;50.122;14.468;2024-01-15T00:14:18;96619.54166108578;;;1.1245899137865294;71.55779354543374
71642;BME280;60657;50.122;14.468;2024-01-15T00:17:25;96608.08954106893;;;1.063172350652323;71.76569771877622
71642;BME280;60657;50.122;14.468;2024-01-15T00:20:36;96603.1541270901;;;1.0391393911650297;71.80575265125505
71642;BME280;60657;50.122;14.468;2024-01-15T00:23:43;96599.0498488946;;;0.9616998550392921;72.10521095597773
71642;BME280;60657;50.122;14.468;2024-01-15T00:26:53;96603.86864418647;;;0.894941634241242;72.72892347600519
71642;BME280;60657;50.122;14.468;2024-01-15T00:30:00;96598.14413885774;;;0.8869306477454799;72.87388418402381
71642;BME280;60657;50.122;14.468;2024-01-15T00:33:08;96596.44656032839;;;0.8014801251239803;72.89868009460594
71642;BME280;60657;50.122;14.468;2024-01-15T00:36:15;96600.63923780418;;;1.0097657740138857;72.35126268406195
71642;BME280;60657;50.122;14.468;2024-01-15T00:39:22;96598.90938481079;;;0.7854581521324491;72.57442587930113
71642;BME280;60657;50.122;14.468;2024-01-15T00:42:29;96588.29358129785;;;0.8468757152666484;72.59540703440909
71642;BME280;60657;50.122;14.468;2024-01-15T00:45:38;96582.55873792963;;;0.7373922331578555;72.48096437018387
71642;BME280;60657;50.122;14.468;2024-01-15T00:48:45;96571.88843739063;;;0.6359197375448247;72.72510872053101
71642;BME280;60657;50.122;14.468;2024-01-15T00:51:52;96567.82858194789;;;0.7534142061493867;72.56107423514153
71642;BME280;60657;50.122;14.468;2024-01-15T00:54:59;96567.78465941754;;;0.7053482871747931;72.81666285191119
71642;BME280;60657;50.122;14.468;2024-01-15T00:58:06;96569.50205469964;;;0.8602273594262613;72.2997634851606
71642;BME280;60657;50.122;14.468;2024-01-15T01:01:13;96567.89201339925;;;0.8041504539558986;72.19867246509499
71642;BME280;60657;50.122;14.468;2024-01-15T01:04:21;96566.18716207829;;;0.7774471656366799;72.19867246509499
71642;BME280;60657;50.122;14.468;2024-01-15T01:07:28;96558.90592204049;;;0.9136339360646986;71.91065842679484
71642;BME280;60657;50.122;14.468;2024-01-15T01:10:35;96562.12651824315;;;0.7774471656366799;72.01174944686046
71642;BME280;60657;50.122;14.468;2024-01-15T01:13:42;96554.71940217474;;;0.7293812466620864;72.17959868772412
71642;BME280;60657;50.122;14.468;2024-01-15T01:16:50;96553.86604244109;;;0.6706340123598054;72.35317006179903
71642;BME280;60657;50.122;14.468;2024-01-15T01:19:57;96552.24667801158;;;0.6572823682001996;72.15861753261616
71642;BME280;60657;50.122;14.468;2024-01-15T01:23:04;96542.47427634877;;;0.6118867780575243;72.11856260013734
71642;BME280;60657;50.122;14.468;2024-01-15T01:26:14;96548.90859641499;;;0.5611505302510125;72.36079957274738
71642;BME280;60657;50.122;14.468;2024-01-15T01:29:22;96537.45381142093;;;0.521095597772181;72.50957503624018
71642;BME280;60657;50.122;14.468;2024-01-15T01:32:29;96548.88578465904;;;0.48638132295720027;72.28259708552682
71642;BME280;60657;50.122;14.468;2024-01-15T01:35:36;96549.78481065619;;;0.5985351338979186;71.7256427862974
71642;BME280;60657;50.122;14.468;2024-01-15T01:38:43;96551.4583604947;;;0.6412603952086684;71.46623941405356
71642;BME280;60657;50.122;14.468;2024-01-15T01:41:50;96542.47427634877;;;0.7854581521324491;71.23735408560312
71642;BME280;60657;50.122;14.468;2024-01-15T01:44:57;96545.74599185563;;;0.6866559853513365;71.21828030823224
71642;BME280;60657;50.122;14.468;2024-01-15T01:48:05;96533.42760306776;;;0.5825131609063874;71.519645990692
71642;BME280;60657;50.122;14.468;2024-01-15T01:51:12;96545.73549419774;;;0.5931944762340748;71.21637293049515
71642;BME280;60657;50.122;14.468;2024-01-15T01:54:21;96527.82617961508;;;0.9189745937285423;70.60219729915312
71642;BME280;60657;50.122;14.468;2024-01-15T01:57:29;96528.60764923545;;;0.7320515754940118;70.73380636301214
71642;BME280;60657;50.122;14.468;2024-01-15T02:00:39;96522.88471967871;;;0.7587548638132304;70.69184405279621
71642;BME280;60657;50.122;14.468;2024-01-15T02:03:47;96525.33598817715;;;0.8094911116197423;70.6498817425803
71642;BME280;60657;50.122;14.468;2024-01-15T02:06:55;96522.09336106962;;;0.8255130846112735;70.46295872434577
71642;BME280;60657;50.122;14.468;2024-01-15T02:10:05;96525.41205593175;;;0.8602273594262613;70.16159304188602
71642;BME280;60657;50.122;14.468;2024-01-15T02:13:13;96522.07411775045;;;0.7186999313343989;70.67658503089952
71642;BME280;60657;50.122;14.468;2024-01-15T02:16:21;96519.61312712853;;;0.7614251926451487;70.55451285572595
71642;BME280;60657;50.122;14.468;2024-01-15T02:19:28;96526.25951585213;;;0.9216449225604606;70.03761348897535
71642;BME280;60657;50.122;14.468;2024-01-15T02:22:35;96511.43913881094;;;0.6946669718471057;70.55069810025178
71642;BME280;60657;50.122;14.468;2024-01-15T02:25:46;96512.22053726471;;;0.6706340123598054;70.6937514305333
71642;BME280;60657;50.122;14.468;2024-01-15T02:28:53;96520.38383596342;;;0.6038757915617623;70.7223620965896
71642;BME280;60657;50.122;14.468;2024-01-15T02:32:04;96504.08549120271;;;0.7881284809643674;70.3408865491722
71642;BME280;60657;50.122;14.468;2024-01-15T02:35:12;96504.85778226212;;;0.6145571068894498;70.65941863126574
71642;BME280;60657;50.122;14.468;2024-01-15T02:38:19;96505.69742074293;;;0.6252384222171372;70.64606698710612
71642;BME280;60657;50.122;14.468;2024-01-15T02:41:26;96508.04768127853;;;0.5397878995956376;70.9588769359884
71642;BME280;60657;50.122;14.468;2024-01-15T02:44:33;96499.06595549526;;;0.550469214923325;70.86350804913405
71642;BME280;60657;50.122;14.468;2024-01-15T02:47:41;96503.95657308892;;;0.5851834897383057;70.71473258564126
71642;BME280;60657;50.122;14.468;2024-01-15T02:50:48;96497.45588564656;;;0.6733043411917308;70.80056458381017
71642;BME280;60657;50.122;14.468;2024-01-15T02:53:55;96492.53462928688;;;0.5825131609063874;70.93026626993209
71642;BME280;60657;50.122;14.468;2024-01-15T02:57:02;96491.69412055983;;;0.4703593499656691;70.9588769359884
71642;BME280;60657;50.122;14.468;2024-01-15T03:00:10;96491.6734802518;;;0.4970626382848877;71.14770733196002
71642;BME280;60657;50.122;14.468;2024-01-15T03:03:20;96496.57402680747;;;0.39024948500801315;71.18966964217594
71642;BME280;60657;50.122;14.468;2024-01-15T03:06:27;96499.81251668246;;;0.4890516517891186;71.11146715495536
71642;BME280;60657;50.122;14.468;2024-01-15T03:09:34;96497.3515986463;;;0.42496375982299384;71.2087434195468
71642;BME280;60657;50.122;14.468;2024-01-15T03:12:41;96499.81251668246;;;0.3955901426718569;71.30983443961242
71642;BME280;60657;50.122;14.468;2024-01-15T03:15:49;96485.11181641703;;;0.5424582284275559;70.90928511482414
71642;BME280;60657;50.122;14.468;2024-01-15T03:18:56;96483.55266836585;;;0.6172274357213681;70.53543907835508
71642;BME280;60657;50.122;14.468;2024-01-15T03:22:03;96469.68826875868;;;0.6118867780575243;70.54879072251468
71642;BME280;60657;50.122;14.468;2024-01-15T03:25:10;96470.45099832324;;;0.5184252689402626;70.78339818417639
71642;BME280;60657;50.122;14.468;2024-01-15T03:28:18;96457.36988646568;;;0.5851834897383057;70.60219729915312
71642;BME280;60657;50.122;14.468;2024-01-15T03:31:25;96450.01916921364;;;0.5344472419317938;70.43434805828946
71642;BME280;60657;50.122;14.468;2024-01-15T03:34:32;96452.45030149822;;;0.4890516517891186;70.29129472800794
71642;BME280;60657;50.122;14.468;2024-01-15T03:37:40;96456.49090625402;;;0.36888685435263824;70.80056458381017
71642;BME280;60657;50.122;14.468;2024-01-15T03:40:47;96450.01916921364;;;0.5718318455786999;70.22644388494697
71642;BME280;60657;50.122;14.468;2024-01-15T03:43:54;96468.7298803709;;;0.3047989623865135;70.65178912031739
71642;BME280;60657;50.122;14.468;2024-01-15T03:47:01;96485.06930592067;;;0.44365606164645044;70.17685206378272
71642;BME280;60657;50.122;14.468;2024-01-15T03:50:09;96500.61105619362;;;0.5104142824444935;69.89074540321965
71642;BME280;60657;50.122;14.468;2024-01-15T03:53:17;96482.70267841865;;;0.5825131609063874;69.48447394522012
71642;BME280;60657;50.122;14.468;2024-01-15T03:56:24;96490.86362676251;;;0.5397878995956376;69.23270008392463
71642;BME280;60657;50.122;14.468;2024-01-15T03:59:31;96484.25984297531;;;0.48104066529335654;69.3528648813611
71642;BME280;60657;50.122;14.468;2024-01-15T04:02:38;96476.15178856057;;;0.6145571068894498;69.21171892881667
71642;BME280;60657;50.122;14.468;2024-01-15T04:05:46;96484.31240790481;;;0.5718318455786999;69.08583199816891
71642;BME280;60657;50.122;14.468;2024-01-15T04:08:53;96485.02548954306;;;0.3395132372014942;69.72480354009308
71642;BME280;60657;50.122;14.468;2024-01-15T04:12:00;96487.55136457719;;;0.5691615167467745;69.30708781567101
71642;BME280;60657;50.122;14.468;2024-01-15T04:15:08;96483.43963405742;;;0.4169527733272318;69.24414435034714
71642;BME280;60657;50.122;14.468;2024-01-15T04:18:17;96498.01229497867;;;0.3021286335545881;69.854505226215
71642;BME280;60657;50.122;14.468;2024-01-15T04:21:24;96498.8446330988;;;0.29678797589074435;69.85069047074083
71642;BME280;60657;50.122;14.468;2024-01-15T04:24:31;96493.96931286776;;;0.37155718318455655;69.60463874265659
71642;BME280;60657;50.122;14.468;2024-01-15T04:27:39;96484.96888324965;;;0.31548027771420095;69.7801174944686
71642;BME280;60657;50.122;14.468;2024-01-15T04:30:46;96481.6289426048;;;0.20065613794155723;69.99565117875945
71642;BME280;60657;50.122;14.468;2024-01-15T04:33:53;96462.88012240744;;;0.29411764705882604;69.99565117875945
71642;BME280;60657;50.122;14.468;2024-01-15T04:37:01;96469.45262590416;;;0.27542534523536943;69.80682078278782
71642;BME280;60657;50.122;14.468;2024-01-15T04:40:09;96458.77945635027;;;0.2140077821011701;70.29701686121919
71642;BME280;60657;50.122;14.468;2024-01-15T04:43:17;96458.83527037097;;;0.3208209353780447;69.99755855649653
71642;BME280;60657;50.122;14.468;2024-01-15T04:46:24;96470.20427197283;;;0.1392385748073579;70.27031357289998
71642;BME280;60657;50.122;14.468;2024-01-15T04:49:31;96471.00101507088;;;0.21934843976501384;70.35042343785763
71642;BME280;60657;50.122;14.468;2024-01-15T04:52:39;96479.93974892168;;;0.10986495765621385;70.50873579003586
71642;BME280;60657;50.122;14.468;2024-01-15T04:55:48;96484.00432556166;;;0.0057221332112646905;70.62699320973526
71642;BME280;60657;50.122;14.468;2024-01-15T04:58:55;96481.54319699387;;;0.027084763866639605;70.46677347981995
71642;BME280;60657;50.122;14.468;2024-01-15T05:02:03;96470.09598229281;;;0.11787594415198299;70.4724956130312
71642;BME280;60657;50.122;14.468;2024-01-15T05:05:10;96479.88987423823;;;0.0003814755474209619;70.60982681010147
71642;BME280;60657;50.122;14.468;2024-01-15T05:08:17;96477.44139814787;;;0.01106279087510842;70.41145952544441
71642;BME280;60657;50.122;14.468;2024-01-15T05:11:25;96484.82470996006;;;0.16861219195849486;70.22644388494697
71642;BME280;60657;50.122;14.468;2024-01-15T05:14:32;96480.7477508225;;;0.1579308766308074;70.37903410391394
71642;BME280;60657;50.122;14.468;2024-01-15T05:17:40;96482.41302453008;;;0.14457923247120164;70.21118486305028
71642;BME280;60657;50.122;14.468;2024-01-15T05:20:47;96486.37607869605;;;-0.012970168612191912;70.71663996337834
71642;BME280;60657;50.122;14.468;2024-01-15T05:23:55;96490.52980149705;;;0.11520561532005757;70.43434805828946
71642;BME280;60657;50.122;14.468;2024-01-15T05:27:02;96490.49135393373;;;0.0457770656900891;70.53543907835508
71642;BME280;60657;50.122;14.468;2024-01-15T05:30:10;96492.0799438284;;;0.021744106202795876;70.47821774624246
71642;BME280;60657;50.122;14.468;2024-01-15T05:33:20;96499.52949393948;;;0.1579308766308074;70.1787594415198
71642;BME280;60657;50.122;14.468;2024-01-15T05:36:27;96512.52746348789;;;0.09117265583276435;70.31799801632715
71642;BME280;60657;50.122;14.468;2024-01-15T05:39:35;96502.77293660387;;;0.01907377737087046;70.20546272983901
71642;BME280;60657;50.122;14.468;2024-01-15T05:42:42;96518.25861380418;;;0.08049134050507689;70.28938735027084
71642;BME280;60657;50.122;14.468;2024-01-15T05:45:51;96504.40101289161;;;0.12321660181582672;70.29320210574502
71642;BME280;60657;50.122;14.468;2024-01-15T05:49:00;96506.02905518674;;;0.12855725947967045;70.1635004196231
71642;BME280;60657;50.122;14.468;2024-01-15T05:52:08;96514.19548617202;;;0.11787594415198299;70.02235446707866
71642;BME280;60657;50.122;14.468;2024-01-15T05:55:15;96498.72173497386;;;0.15259021896696368;69.80491340505074
71642;BME280;60657;50.122;14.468;2024-01-15T05:58:22;96496.2475300434;;;0.14457923247120164;69.71335927367056
71642;BME280;60657;50.122;14.468;2024-01-15T06:01:29;96502.75991132342;;;0.06981002517738943;69.91744869153887
71642;BME280;60657;50.122;14.468;2024-01-15T06:04:37;96502.83684059183;;;0.2674143587396074;69.50354772259098
71642;BME280;60657;50.122;14.468;2024-01-15T06:07:44;96501.2208708406;;;0.2140077821011701;69.0896467536431
71642;BME280;60657;50.122;14.468;2024-01-15T06:10:53;96497.10603148544;;;0.10719462882429553;69.15068284122988
71642;BME280;60657;50.122;14.468;2024-01-15T06:14:03;96497.93899851026;;;0.1739528496223386;69.10490577553979
71642;BME280;60657;50.122;14.468;2024-01-15T06:17:10;96501.18321536071;;;0.18463416495002605;69.22507057297628
71642;BME280;60657;50.122;14.468;2024-01-15T06:20:17;96465.24752708696;;;0.14991989013504536;69.1640344853895
71642;BME280;60657;50.122;14.468;2024-01-15T06:23:27;96512.55422393365;;;0.12588693064774503;69.1640344853895
71642;BME280;60657;50.122;14.468;2024-01-15T06:26:34;96516.59009228228;;;0.035095750362401645;69.35667963683528
71642;BME280;60657;50.122;14.468;2024-01-15T06:29:44;96513.2936406705;;;0.05111772335393283;69.20790417334248
71642;BME280;60657;50.122;14.468;2024-01-15T06:32:52;96519.01087129592;;;0.09117265583276435;69.27466239414053
71642;BME280;60657;50.122;14.468;2024-01-15T06:36:00;96533.75687176829;;;-0.01831082627603564;69.18501564049744
71642;BME280;60657;50.122;14.468;2024-01-15T06:39:11;96520.53873474845;;;-0.11177233539330445;69.75532158388647
71642;BME280;60657;50.122;14.468;2024-01-15T06:42:18;96533.5989165109;;;-0.07171740291447293;69.7515068284123
71642;BME280;60657;50.122;14.468;2024-01-15T06:45:25;96537.62859045935;;;-0.07438773174639834;69.99946593423361
71642;BME280;60657;50.122;14.468;2024-01-15T06:48:33;96540.78868553735;;;-0.28267338063630376;70.60028992141604
71642;BME280;60657;50.122;14.468;2024-01-15T06:51:40;96539.22466382314;;;-0.12779430838483563;70.2378881513695
71642;BME280;60657;50.122;14.468;2024-01-15T06:54:47;96542.4621599717;;;-0.18654154268711665;70.24551766231785
71642;BME280;60657;50.122;14.468;2024-01-15T06:57:55;96541.57798334942;;;-0.20523384451056614;70.27222095063706
71642;BME280;60657;50.122;14.468;2024-01-15T07:01:02;96554.48582311132;;;-0.35744258793011596;70.6632333867399
71642;BME280;60657;50.122;14.468;2024-01-15T07:04:10;96560.14894470442;;;-0.43221179522392816;70.77386129549096
71642;BME280;60657;50.122;14.468;2024-01-15T07:07:17;96580.63087024866;;;-0.37346456092164715;70.52971694514382
71642;BME280;60657;50.122;14.468;2024-01-15T07:10:24;96574.02460715498;;;-0.5230029755092716;71.02372777904937
71642;BME280;60657;50.122;14.468;2024-01-15T07:13:32;96583.06029820985;;;-0.37346456092164715;70.76050965133135
71642;BME280;60657;50.122;14.468;2024-01-15T07:16:40;96590.34740879375;;;-0.42954146639200275;71.1515220874342
71642;BME280;60657;50.122;14.468;2024-01-15T07:19:47;96596.99061187472;;;-0.2746623941405346;70.83299000534066
71642;BME280;60657;50.122;14.468;2024-01-15T07:22:55;96601.98921929182;;;-0.20790417334249156;70.6784924086366
71642;BME280;60657;50.122;14.468;2024-01-15T07:26:03;96606.98630311419;;;-0.10910200656137903;70.59456778820477
71642;BME280;60657;50.122;14.468;2024-01-15T07:29:11;96601.51045321797;;;0.10452429999237012;69.92507820248721
71642;BME280;60657;50.122;14.468;2024-01-15T07:32:18;96597.59838637871;;;0.27542534523536943;69.44823376821546
71642;BME280;60657;50.122;14.468;2024-01-15T07:35:25;96586.32387260182;;;0.3635461966887945;68.65857938506142
71642;BME280;60657;50.122;14.468;2024-01-15T07:38:37;96599.48741933105;;;0.38757915617608774;68.11497672999161
71642;BME280;60657;50.122;14.468;2024-01-15T07:41:44;96602.03933551606;;;0.6786449988555745;67.68009460593576
71642;BME280;60657;50.122;14.468;2024-01-15T07:44:52;96591.63100468197;;;1.0070954451819674;66.91523613336385
71642;BME280;60657;50.122;14.468;2024-01-15T07:47:59;96589.46623496975;;;1.4690623331044463;65.57434958419165
71642;BME280;60657;50.122;14.468;2024-01-15T07:51:07;96595.973392124;;;1.276798657206072;65.2882429236286
71642;BME280;60657;50.122;14.468;2024-01-15T07:54:14;96589.44188774038;;;1.3035019455252908;64.84763866636149
71642;BME280;60657;50.122;14.468;2024-01-15T07:57:22;96578.87605592448;;;1.4904249637598213;64.17051956969559
71642;BME280;60657;50.122;14.468;2024-01-15T08:00:29;96570.77300035098;;;1.6693369954985897;63.56015869382773
71642;BME280;60657;50.122;14.468;2024-01-15T08:03:36;96568.38005933803;;;1.6613260090028206;62.806744487678344
71642;BME280;60657;50.122;14.468;2024-01-15T08:06:44;96562.67349831748;;;1.8802929732204134;62.65796902418555
71642;BME280;60657;50.122;14.468;2024-01-15T08:09:51;96547.97871311478;;;2.0832379644464822;62.45387960631723
71642;BME280;60657;50.122;14.468;2024-01-15T08:12:59;96548.00932172302;;;2.0565346761272636;61.843518730449375
71642;BME280;60657;50.122;14.468;2024-01-15T08:16:06;96534.92964340975;;;2.4570840009155432;61.24650949874113
71642;BME280;60657;50.122;14.468;2024-01-15T08:19:14;96535.75922494639;;;2.646677347981992;60.59227893492027
71642;BME280;60657;50.122;14.468;2024-01-15T08:22:21;96525.0881910384;;;2.8923476005188036;59.922789349202716
71642;BME280;60657;50.122;14.468;2024-01-15T08:25:29;96526.74182559148;;;2.622644388494699;59.59281300068666
71642;BME280;60657;50.122;14.468;2024-01-15T08:28:36;96556.16352596442;;;1.9256885633630887;61.62607766842146
71642;BME280;60657;50.122;14.468;2024-01-15T08:31:44;96543.78218878961;;;1.6479743648432148;63.12718394750897
71642;BME280;60657;50.122;14.468;2024-01-15T08:34:51;96546.13370288916;;;1.26878767071031;64.03318837262532
71642;BME280;60657;50.122;14.468;2024-01-15T08:37:58;96558.27926163623;;;1.1379415579461352;64.92202639810787
71642;BME280;60657;50.122;14.468;2024-01-15T08:41:06;96550.10024718146;;;1.151293202105748;64.62829022659648
71642;BME280;60657;50.122;14.468;2024-01-15T08:44:13;96562.30308064634;;;1.1326009002822914;65.1699855039292
71642;BME280;60657;50.122;14.468;2024-01-15T08:47:30;96546.01484596971;;;1.231403067063404;64.77706569008926
71642;BME280;60657;50.122;14.468;2024-01-15T08:50:38;96552.47539458724;;;1.0738536659800104;64.93156328679332
71642;BME280;60657;50.122;14.468;2024-01-15T08:53:46;96549.99585145108;;;1.0097657740138857;65.00595101853972
71642;BME280;60657;50.122;14.468;2024-01-15T08:56:55;96554.13411016768;;;1.0578316929884792;64.75608453498131
71642;BME280;60657;50.122;14.468;2024-01-15T09:00:03;96545.96486763675;;;1.0471503776607918;64.49858854047456
71642;BME280;60657;50.122;14.468;2024-01-15T09:03:12;96536.15476968473;;;1.1673151750972792;64.31929503318837
71642;BME280;60657;50.122;14.468;2024-01-15T09:06:20;96548.3822081092;;;1.0578316929884792;64.6683451590753
71642;BME280;60657;50.122;14.468;2024-01-15T09:09:27;96552.47539458724;;;1.0364690623331043;64.65117875944152
71642;BME280;60657;50.122;14.468;2024-01-15T09:12:35;96548.4087228016;;;1.121919584954604;64.69695582513161
71642;BME280;60657;50.122;14.468;2024-01-15T09:15:42;96560.71512049223;;;1.1539635309376663;64.31738765545128
71642;BME280;60657;50.122;14.468;2024-01-15T09:18:50;96548.49963870623;;;1.20202944991226;63.96833752956435
71642;BME280;60657;50.122;14.468;2024-01-15T09:21:58;96549.29616115724;;;1.231403067063404;63.94735637445639
71642;BME280;60657;50.122;14.468;2024-01-15T09:25:06;96550.16329283279;;;1.3435568780041223;63.57732509346151
71642;BME280;60657;50.122;14.468;2024-01-15T09:28:14;96539.55844360037;;;1.415655756466009;63.22446021210041
71642;BME280;60657;50.122;14.468;2024-01-15T09:31:21;96535.43611905824;;;1.3435568780041223;63.45143816281376
71642;BME280;60657;50.122;14.468;2024-01-15T09:34:29;96537.07648896168;;;1.2634470130464663;63.579232471198594
71642;BME280;60657;50.122;14.468;2024-01-15T09:37:39;96531.34254957478;;;1.2153810940718728;63.81193255512322
71642;BME280;60657;50.122;14.468;2024-01-15T09:40:47;96534.54698069049;;;1.121919584954604;64.00839246204319
71642;BME280;60657;50.122;14.468;2024-01-15T09:43:59;96528.03221677762;;;1.1779964904249667;63.84626535439078
71642;BME280;60657;50.122;14.468;2024-01-15T09:47:07;96528.8292344129;;;1.218051422903791;63.99313344014648
71642;BME280;60657;50.122;14.468;2024-01-15T09:50:15;96510.8249582557;;;1.2153810940718728;63.75280384527352
71642;BME280;60657;50.122;14.468;2024-01-15T09:53:22;96534.53075540341;;;1.1753261615930413;63.638361181048296
71642;BME280;60657;50.122;14.468;2024-01-15T09:56:32;96525.56406389852;;;1.239414053559166;63.30647745479514
71642;BME280;60657;50.122;14.468;2024-01-15T09:59:40;96510.88317329178;;;1.2287327382314785;63.29694056610971
71642;BME280;60657;50.122;14.468;2024-01-15T10:02:50;96510.04909362152;;;1.2447547112230097;63.17868314641032
71642;BME280;60657;50.122;14.468;2024-01-15T10:05:58;96503.53738295038;;;1.2741283283741538;63.00320439459831
71642;BME280;60657;50.122;14.468;2024-01-15T10:09:07;96499.44440545079;;;1.2714579995422284;63.15770199130236
71642;BME280;60657;50.122;14.468;2024-01-15T10:12:14;96497.82399852511;;;1.319523918516822;62.890669108110174
71642;BME280;60657;50.122;14.468;2024-01-15T10:15:22;96475.70834565966;;;1.2500953688868535;63.068055237659266
71642;BME280;60657;50.122;14.468;2024-01-15T10:18:30;96484.70663978848;;;1.2340733958953223;62.942168307011514
71642;BME280;60657;50.122;14.468;2024-01-15T10:21:37;96479.82549689007;;;1.3141832608529782;63.00701915007248
71642;BME280;60657;50.122;14.468;2024-01-15T10:24:45;96485.55770432772;;;1.3756008239871846;62.833447775997556
71642;BME280;60657;50.122;14.468;2024-01-15T10:28:00;96475.77275306896;;;1.4396887159533094;62.81437399862669
71642;BME280;60657;50.122;14.468;2024-01-15T10:31:10;96474.98410601402;;;1.4209964141298528;62.33943694209201
71642;BME280;60657;50.122;14.468;2024-01-15T10:34:19;96456.97843931787;;;1.5197985809109653;62.16777294575418
71642;BME280;60657;50.122;14.468;2024-01-15T10:37:26;96462.70538127815;;;1.4183260852979345;62.22117952239262
71642;BME280;60657;50.122;14.468;2024-01-15T10:40:34;96464.34441074387;;;1.5144579232471216;62.34325169756619
71642;BME280;60657;50.122;14.468;2024-01-15T10:43:41;96452.93194379925;;;1.6666666666666643;61.70809491111619
71642;BME280;60657;50.122;14.468;2024-01-15T10:46:51;96458.63101761941;;;1.5144579232471216;61.68520637827115
71642;BME280;60657;50.122;14.468;2024-01-15T10:49:59;96459.48688037123;;;1.6186007476920707;61.32852674143588
71642;BME280;60657;50.122;14.468;2024-01-15T10:53:09;96465.19946160934;;;1.546501869230184;61.58220798046845
71642;BME280;60657;50.122;14.468;2024-01-15T10:56:19;96460.30255634783;;;1.6773479819943518;61.63561455710689
71642;BME280;60657;50.122;14.468;2024-01-15T10:59:29;96445.58581458221;;;1.6773479819943518;61.27512016479744
71642;BME280;60657;50.122;14.468;2024-01-15T11:02:37;96441.5017323594;;;1.7360952162966328;61.22362096589609
71642;BME280;60657;50.122;14.468;2024-01-15T11:05:45;96445.57598101893;;;1.6292820630197582;61.42198825055314
71642;BME280;60657;50.122;14.468;2024-01-15T11:08:53;96446.40506739651;;;1.701380941481652;61.3990997177081
71642;BME280;60657;50.122;14.468;2024-01-15T11:12:09;96446.39860969983;;;1.6239414053559145;61.59746700236515
71642;BME280;60657;50.122;14.468;2024-01-15T11:15:19;96459.50092850206;;;1.7467765316243202;61.59746700236515
71642;BME280;60657;50.122;14.468;2024-01-15T11:18:27;96454.5978181397;;;1.7040512703135704;61.47730220492866